sensor_id;sensor_type;location;lat;lon;timestamp;P1;durP1;ratioP1;P2;durP2;ratioP2
33246;SDS011;19606;50.108;19.804;2022-10-18T00:01:20;65.63;;;30.83;;
33246;SDS011;19606;50.108;19.804;2022-10-18T00:03:46;71.07;;;34.38;;
33246;SDS011;19606;50.108;19.804;2022-10-18T00:06:12;75.30;;;34.67;;
33246;SDS011;19606;50.108;19.804;2022-10-18T00:08:38;68.30;;;30.33;;
33246;SDS011;19606;50.108;19.804;2022-10-18T00:11:04;76.22;;;35.70;;
33246;SDS011;19606;50.108;19.804;2022-10-18T00:13:30;69.78;;;33.70;;
33246;SDS011;19606;50.108;19.804;2022-10-18T00:15:57;78.07;;;33.03;;
33246;SDS011;19606;50.108;19.804;2022-10-18T00:18:24;78.93;;;34.45;;
33246;SDS011;19606;50.108;19.804;2022-10-18T00:21:03;67.35;;;32.60;;
33246;SDS011;19606;50.108;19.804;2022-10-18T00:23:30;74.25;;;33.15;;
33246;SDS011;19606;50.108;19.804;2022-10-18T00:28:25;71.38;;;31.90;;
33246;SDS011;19606;50.108;19.804;2022-10-18T00:30:51;69.50;;;32.70;;
33246;SDS011;19606;50.108;19.804;2022-10-18T00:33:17;67.72;;;31.92;;
33246;SDS011;19606;50.108;19.804;2022-10-18T00:35:43;71.57;;;31.30;;
33246;SDS011;19606;50.108;19.804;2022-10-18T00:38:09;68.72;;;31.70;;
33246;SDS011;19606;50.108;19.804;2022-10-18T00:40:36;54.33;;;26.02;;
33246;SDS011;19606;50.108;19.804;2022-10-18T00:43:02;64.53;;;30.80;;
33246;SDS011;19606;50.108;19.804;2022-10-18T00:45:28;62.17;;;30.55;;
33246;SDS011;19606;50.108;19.804;2022-10-18T00:47:55;62.25;;;28.38;;
33246;SDS011;19606;50.108;19.804;2022-10-18T00:50:23;56.28;;;28.58;;
33246;SDS011;19606;50.108;19.804;2022-10-18T00:52:51;61.63;;;31.08;;
33246;SDS011;19606;50.108;19.804;2022-10-18T00:55:17;64.00;;;30.83;;
33246;SDS011;19606;50.108;19.804;2022-10-18T00:57:44;67.75;;;32.42;;
33246;SDS011;19606;50.108;19.804;2022-10-18T01:00:10;63.75;;;30.63;;
33246;SDS011;19606;50.108;19.804;2022-10-18T01:02:37;61.90;;;29.85;;
33246;SDS011;19606;50.108;19.804;2022-10-18T01:05:03;61.38;;;28.92;;
33246;SDS011;19606;50.108;19.804;2022-10-18T01:15:15;57.08;;;29.02;;
33246;SDS011;19606;50.108;19.804;2022-10-18T01:23:04;58.10;;;26.42;;
33246;SDS011;19606;50.108;19.804;2022-10-18T01:30:53;57.03;;;25.60;;
33246;SDS011;19606;50.108;19.804;2022-10-18T01:33:27;50.60;;;24.13;;
33246;SDS011;19606;50.108;19.804;2022-10-18T01:36:03;55.42;;;23.67;;
33246;SDS011;19606;50.108;19.804;2022-10-18T01:38:31;45.03;;;23.73;;
33246;SDS011;19606;50.108;19.804;2022-10-18T01:40:58;53.90;;;24.50;;
33246;SDS011;19606;50.108;19.804;2022-10-18T01:43:25;52.40;;;22.27;;
33246;SDS011;19606;50.108;19.804;2022-10-18T01:45:52;50.25;;;22.45;;
33246;SDS011;19606;50.108;19.804;2022-10-18T01:48:18;50.63;;;22.42;;
33246;SDS011;19606;50.108;19.804;2022-10-18T01:50:44;52.83;;;24.38;;
33246;SDS011;19606;50.108;19.804;2022-10-18T01:53:27;51.15;;;24.20;;
33246;SDS011;19606;50.108;19.804;2022-10-18T01:56:16;49.65;;;23.95;;
33246;SDS011;19606;50.108;19.804;2022-10-18T02:01:10;57.65;;;27.17;;
33246;SDS011;19606;50.108;19.804;2022-10-18T02:03:42;55.60;;;25.27;;
33246;SDS011;19606;50.108;19.804;2022-10-18T02:06:18;59.47;;;25.65;;
33246;SDS011;19606;50.108;19.804;2022-10-18T02:11:31;49.90;;;24.23;;
33246;SDS011;19606;50.108;19.804;2022-10-18T02:14:08;48.88;;;23.83;;
33246;SDS011;19606;50.108;19.804;2022-10-18T02:21:43;48.17;;;21.77;;
33246;SDS011;19606;50.108;19.804;2022-10-18T02:24:11;43.70;;;20.98;;
33246;SDS011;19606;50.108;19.804;2022-10-18T02:26:37;43.15;;;19.88;;
33246;SDS011;19606;50.108;19.804;2022-10-18T02:29:03;42.85;;;20.25;;
33246;SDS011;19606;50.108;19.804;2022-10-18T02:31:30;34.58;;;17.67;;
33246;SDS011;19606;50.108;19.804;2022-10-18T02:34:03;42.10;;;17.58;;
33246;SDS011;19606;50.108;19.804;2022-10-18T02:36:54;41.17;;;18.17;;
33246;SDS011;19606;50.108;19.804;2022-10-18T02:39:19;39.55;;;19.27;;
33246;SDS011;19606;50.108;19.804;2022-10-18T02:41:47;37.53;;;18.35;;
33246;SDS011;19606;50.108;19.804;2022-10-18T02:44:13;40.55;;;18.88;;
33246;SDS011;19606;50.108;19.804;2022-10-18T02:46:39;36.00;;;19.15;;
33246;SDS011;19606;50.108;19.804;2022-10-18T02:49:05;46.53;;;23.75;;
33246;SDS011;19606;50.108;19.804;2022-10-18T02:51:31;52.83;;;24.10;;
33246;SDS011;19606;50.108;19.804;2022-10-18T02:53:57;38.03;;;19.88;;
33246;SDS011;19606;50.108;19.804;2022-10-18T02:56:23;44.80;;;21.15;;
33246;SDS011;19606;50.108;19.804;2022-10-18T02:58:49;41.17;;;20.42;;
33246;SDS011;19606;50.108;19.804;2022-10-18T03:01:15;46.10;;;20.77;;
33246;SDS011;19606;50.108;19.804;2022-10-18T03:03:41;43.97;;;18.83;;
33246;SDS011;19606;50.108;19.804;2022-10-18T03:06:07;38.50;;;18.42;;
33246;SDS011;19606;50.108;19.804;2022-10-18T03:08:34;44.25;;;21.85;;
33246;SDS011;19606;50.108;19.804;2022-10-18T03:11:00;58.65;;;25.00;;
33246;SDS011;19606;50.108;19.804;2022-10-18T03:13:26;59.03;;;29.38;;
33246;SDS011;19606;50.108;19.804;2022-10-18T03:15:52;57.83;;;27.30;;
33246;SDS011;19606;50.108;19.804;2022-10-18T03:18:18;58.72;;;28.05;;
33246;SDS011;19606;50.108;19.804;2022-10-18T03:20:44;56.65;;;29.55;;
33246;SDS011;19606;50.108;19.804;2022-10-18T03:23:10;67.78;;;30.05;;
33246;SDS011;19606;50.108;19.804;2022-10-18T03:25:36;65.88;;;29.85;;
33246;SDS011;19606;50.108;19.804;2022-10-18T03:28:02;58.25;;;27.15;;
33246;SDS011;19606;50.108;19.804;2022-10-18T03:30:29;59.92;;;28.58;;
33246;SDS011;19606;50.108;19.804;2022-10-18T03:32:55;63.15;;;30.35;;
33246;SDS011;19606;50.108;19.804;2022-10-18T03:35:21;57.05;;;29.35;;
33246;SDS011;19606;50.108;19.804;2022-10-18T03:37:47;57.83;;;26.67;;
33246;SDS011;19606;50.108;19.804;2022-10-18T03:40:13;54.10;;;26.73;;
33246;SDS011;19606;50.108;19.804;2022-10-18T03:42:39;51.25;;;25.45;;
33246;SDS011;19606;50.108;19.804;2022-10-18T03:45:06;55.67;;;28.48;;
33246;SDS011;19606;50.108;19.804;2022-10-18T03:47:32;61.28;;;29.45;;
33246;SDS011;19606;50.108;19.804;2022-10-18T03:49:58;55.35;;;27.15;;
33246;SDS011;19606;50.108;19.804;2022-10-18T03:52:24;50.75;;;26.20;;
33246;SDS011;19606;50.108;19.804;2022-10-18T03:54:50;65.28;;;29.73;;
33246;SDS011;19606;50.108;19.804;2022-10-18T03:57:16;74.40;;;33.88;;
33246;SDS011;19606;50.108;19.804;2022-10-18T03:59:42;73.07;;;33.65;;
33246;SDS011;19606;50.108;19.804;2022-10-18T04:02:08;83.60;;;38.65;;
33246;SDS011;19606;50.108;19.804;2022-10-18T04:04:34;83.65;;;37.95;;
33246;SDS011;19606;50.108;19.804;2022-10-18T04:07:00;82.75;;;37.92;;
33246;SDS011;19606;50.108;19.804;2022-10-18T04:09:26;85.68;;;38.58;;
33246;SDS011;19606;50.108;19.804;2022-10-18T04:11:52;92.38;;;42.08;;
33246;SDS011;19606;50.108;19.804;2022-10-18T04:14:18;85.53;;;40.85;;
33246;SDS011;19606;50.108;19.804;2022-10-18T04:16:45;92.65;;;41.78;;
33246;SDS011;19606;50.108;19.804;2022-10-18T04:19:11;83.30;;;40.70;;
33246;SDS011;19606;50.108;19.804;2022-10-18T04:21:37;82.00;;;37.92;;
33246;SDS011;19606;50.108;19.804;2022-10-18T04:24:04;70.07;;;35.42;;
33246;SDS011;19606;50.108;19.804;2022-10-18T04:26:30;70.45;;;34.03;;
33246;SDS011;19606;50.108;19.804;2022-10-18T04:28:56;84.75;;;36.20;;
33246;SDS011;19606;50.108;19.804;2022-10-18T04:31:22;71.28;;;33.33;;
33246;SDS011;19606;50.108;19.804;2022-10-18T04:33:48;71.47;;;33.63;;
33246;SDS011;19606;50.108;19.804;2022-10-18T04:36:14;69.50;;;33.30;;
33246;SDS011;19606;50.108;19.804;2022-10-18T04:38:40;64.57;;;30.55;;
33246;SDS011;19606;50.108;19.804;2022-10-18T04:41:06;66.85;;;32.72;;
33246;SDS011;19606;50.108;19.804;2022-10-18T04:43:32;69.18;;;31.83;;
33246;SDS011;19606;50.108;19.804;2022-10-18T04:45:58;65.03;;;30.00;;
33246;SDS011;19606;50.108;19.804;2022-10-18T04:48:24;57.92;;;29.80;;
33246;SDS011;19606;50.108;19.804;2022-10-18T04:50:50;63.40;;;30.02;;
33246;SDS011;19606;50.108;19.804;2022-10-18T04:53:16;64.10;;;30.00;;
33246;SDS011;19606;50.108;19.804;2022-10-18T04:55:49;61.47;;;29.60;;
33246;SDS011;19606;50.108;19.804;2022-10-18T04:58:16;60.47;;;29.67;;
33246;SDS011;19606;50.108;19.804;2022-10-18T05:00:42;59.65;;;29.63;;
33246;SDS011;19606;50.108;19.804;2022-10-18T05:03:08;73.68;;;30.67;;
33246;SDS011;19606;50.108;19.804;2022-10-18T05:05:34;60.63;;;30.30;;
33246;SDS011;19606;50.108;19.804;2022-10-18T05:08:04;61.95;;;30.92;;
33246;SDS011;19606;50.108;19.804;2022-10-18T05:10:30;62.33;;;31.92;;
33246;SDS011;19606;50.108;19.804;2022-10-18T05:12:56;70.40;;;32.63;;
33246;SDS011;19606;50.108;19.804;2022-10-18T05:15:22;67.63;;;34.00;;
33246;SDS011;19606;50.108;19.804;2022-10-18T05:17:49;67.25;;;32.78;;
33246;SDS011;19606;50.108;19.804;2022-10-18T05:20:15;69.90;;;32.90;;
33246;SDS011;19606;50.108;19.804;2022-10-18T05:22:41;62.65;;;29.85;;
33246;SDS011;19606;50.108;19.804;2022-10-18T05:25:07;64.93;;;31.48;;
33246;SDS011;19606;50.108;19.804;2022-10-18T05:27:41;56.97;;;30.02;;
33246;SDS011;19606;50.108;19.804;2022-10-18T05:30:07;64.80;;;32.70;;
33246;SDS011;19606;50.108;19.804;2022-10-18T05:32:33;65.95;;;32.10;;
33246;SDS011;19606;50.108;19.804;2022-10-18T05:35:02;66.72;;;33.45;;
33246;SDS011;19606;50.108;19.804;2022-10-18T05:37:29;69.10;;;33.78;;
33246;SDS011;19606;50.108;19.804;2022-10-18T05:39:57;78.38;;;34.15;;
33246;SDS011;19606;50.108;19.804;2022-10-18T05:42:23;73.78;;;33.53;;
33246;SDS011;19606;50.108;19.804;2022-10-18T05:44:49;76.22;;;34.63;;
33246;SDS011;19606;50.108;19.804;2022-10-18T05:47:15;75.95;;;35.85;;
33246;SDS011;19606;50.108;19.804;2022-10-18T05:49:41;70.18;;;35.45;;
33246;SDS011;19606;50.108;19.804;2022-10-18T05:52:07;70.50;;;34.65;;
33246;SDS011;19606;50.108;19.804;2022-10-18T05:54:33;68.10;;;34.72;;
33246;SDS011;19606;50.108;19.804;2022-10-18T05:56:59;71.18;;;34.88;;
33246;SDS011;19606;50.108;19.804;2022-10-18T05:59:25;64.05;;;33.63;;
33246;SDS011;19606;50.108;19.804;2022-10-18T06:01:51;66.03;;;34.65;;
33246;SDS011;19606;50.108;19.804;2022-10-18T06:04:17;68.72;;;32.55;;
33246;SDS011;19606;50.108;19.804;2022-10-18T06:06:43;64.45;;;33.47;;
33246;SDS011;19606;50.108;19.804;2022-10-18T06:09:09;69.38;;;35.25;;
33246;SDS011;19606;50.108;19.804;2022-10-18T06:11:35;66.95;;;35.05;;
33246;SDS011;19606;50.108;19.804;2022-10-18T06:14:02;76.70;;;37.50;;
33246;SDS011;19606;50.108;19.804;2022-10-18T06:16:29;77.78;;;35.80;;
33246;SDS011;19606;50.108;19.804;2022-10-18T06:18:55;70.43;;;36.38;;
33246;SDS011;19606;50.108;19.804;2022-10-18T06:21:22;77.80;;;38.90;;
33246;SDS011;19606;50.108;19.804;2022-10-18T06:23:52;69.57;;;38.17;;
33246;SDS011;19606;50.108;19.804;2022-10-18T06:26:18;72.18;;;39.17;;
33246;SDS011;19606;50.108;19.804;2022-10-18T06:28:45;75.20;;;38.78;;
33246;SDS011;19606;50.108;19.804;2022-10-18T06:31:11;66.95;;;37.58;;
33246;SDS011;19606;50.108;19.804;2022-10-18T06:33:37;69.97;;;38.17;;
33246;SDS011;19606;50.108;19.804;2022-10-18T06:38:30;56.72;;;31.27;;
33246;SDS011;19606;50.108;19.804;2022-10-18T06:40:56;55.22;;;30.48;;
33246;SDS011;19606;50.108;19.804;2022-10-18T06:43:23;52.70;;;29.00;;
33246;SDS011;19606;50.108;19.804;2022-10-18T06:45:49;46.35;;;26.15;;
33246;SDS011;19606;50.108;19.804;2022-10-18T06:48:16;45.85;;;24.77;;
33246;SDS011;19606;50.108;19.804;2022-10-18T06:50:43;47.83;;;24.88;;
33246;SDS011;19606;50.108;19.804;2022-10-18T06:53:15;47.60;;;25.92;;
33246;SDS011;19606;50.108;19.804;2022-10-18T06:55:41;44.45;;;24.48;;
33246;SDS011;19606;50.108;19.804;2022-10-18T06:58:07;52.88;;;29.55;;
33246;SDS011;19606;50.108;19.804;2022-10-18T07:00:33;50.00;;;29.40;;
33246;SDS011;19606;50.108;19.804;2022-10-18T07:03:00;48.92;;;30.90;;
33246;SDS011;19606;50.108;19.804;2022-10-18T07:05:26;49.55;;;29.73;;
33246;SDS011;19606;50.108;19.804;2022-10-18T07:07:52;46.80;;;29.05;;
33246;SDS011;19606;50.108;19.804;2022-10-18T07:10:18;51.13;;;27.85;;
33246;SDS011;19606;50.108;19.804;2022-10-18T07:12:44;44.85;;;27.00;;
33246;SDS011;19606;50.108;19.804;2022-10-18T07:15:10;58.00;;;28.17;;
33246;SDS011;19606;50.108;19.804;2022-10-18T07:17:36;45.05;;;27.13;;
33246;SDS011;19606;50.108;19.804;2022-10-18T07:20:02;39.05;;;22.75;;
33246;SDS011;19606;50.108;19.804;2022-10-18T07:22:29;37.50;;;23.35;;
33246;SDS011;19606;50.108;19.804;2022-10-18T07:24:55;37.20;;;21.13;;
33246;SDS011;19606;50.108;19.804;2022-10-18T07:27:21;34.78;;;21.95;;
33246;SDS011;19606;50.108;19.804;2022-10-18T07:29:47;37.55;;;23.20;;
33246;SDS011;19606;50.108;19.804;2022-10-18T07:32:13;49.10;;;23.13;;
33246;SDS011;19606;50.108;19.804;2022-10-18T07:34:39;42.60;;;22.73;;
33246;SDS011;19606;50.108;19.804;2022-10-18T07:37:05;40.10;;;25.13;;
33246;SDS011;19606;50.108;19.804;2022-10-18T07:39:31;39.03;;;26.67;;
33246;SDS011;19606;50.108;19.804;2022-10-18T07:41:57;35.30;;;24.67;;
33246;SDS011;19606;50.108;19.804;2022-10-18T07:44:23;41.88;;;26.05;;
33246;SDS011;19606;50.108;19.804;2022-10-18T07:46:49;45.25;;;25.30;;
33246;SDS011;19606;50.108;19.804;2022-10-18T07:49:15;40.38;;;23.88;;
33246;SDS011;19606;50.108;19.804;2022-10-18T07:51:42;40.25;;;24.05;;
33246;SDS011;19606;50.108;19.804;2022-10-18T07:54:08;36.97;;;22.48;;
33246;SDS011;19606;50.108;19.804;2022-10-18T07:56:34;38.35;;;23.45;;
33246;SDS011;19606;50.108;19.804;2022-10-18T07:59:00;36.72;;;23.42;;
33246;SDS011;19606;50.108;19.804;2022-10-18T08:01:26;37.10;;;20.65;;
33246;SDS011;19606;50.108;19.804;2022-10-18T08:03:52;32.30;;;21.23;;
33246;SDS011;19606;50.108;19.804;2022-10-18T08:06:19;35.08;;;21.67;;
33246;SDS011;19606;50.108;19.804;2022-10-18T08:08:46;39.50;;;24.13;;
33246;SDS011;19606;50.108;19.804;2022-10-18T08:11:19;41.10;;;22.60;;
33246;SDS011;19606;50.108;19.804;2022-10-18T08:13:45;44.00;;;23.42;;
33246;SDS011;19606;50.108;19.804;2022-10-18T08:16:13;33.03;;;20.50;;
33246;SDS011;19606;50.108;19.804;2022-10-18T08:18:39;35.17;;;20.05;;
33246;SDS011;19606;50.108;19.804;2022-10-18T08:21:06;33.28;;;20.05;;
33246;SDS011;19606;50.108;19.804;2022-10-18T08:23:33;33.40;;;20.60;;
33246;SDS011;19606;50.108;19.804;2022-10-18T08:26:03;31.30;;;18.98;;
33246;SDS011;19606;50.108;19.804;2022-10-18T08:28:29;31.55;;;18.48;;
33246;SDS011;19606;50.108;19.804;2022-10-18T08:30:55;27.25;;;18.85;;
33246;SDS011;19606;50.108;19.804;2022-10-18T08:33:21;31.67;;;19.50;;
33246;SDS011;19606;50.108;19.804;2022-10-18T08:35:54;31.42;;;18.80;;
33246;SDS011;19606;50.108;19.804;2022-10-18T08:38:20;26.90;;;18.38;;
33246;SDS011;19606;50.108;19.804;2022-10-18T08:40:46;30.50;;;17.00;;
33246;SDS011;19606;50.108;19.804;2022-10-18T08:45:54;31.88;;;16.67;;
33246;SDS011;19606;50.108;19.804;2022-10-18T08:48:21;26.42;;;17.42;;
33246;SDS011;19606;50.108;19.804;2022-10-18T08:50:48;28.73;;;16.83;;
33246;SDS011;19606;50.108;19.804;2022-10-18T08:55:43;26.13;;;14.50;;
33246;SDS011;19606;50.108;19.804;2022-10-18T08:58:31;27.85;;;15.70;;
33246;SDS011;19606;50.108;19.804;2022-10-18T09:06:30;31.00;;;17.40;;
33246;SDS011;19606;50.108;19.804;2022-10-18T09:14:02;26.35;;;17.40;;
33246;SDS011;19606;50.108;19.804;2022-10-18T09:16:33;32.72;;;16.63;;
33246;SDS011;19606;50.108;19.804;2022-10-18T09:21:42;30.65;;;14.88;;
33246;SDS011;19606;50.108;19.804;2022-10-18T09:24:17;28.05;;;16.90;;
33246;SDS011;19606;50.108;19.804;2022-10-18T09:26:46;30.88;;;16.00;;
33246;SDS011;19606;50.108;19.804;2022-10-18T09:36:46;28.42;;;16.48;;
33246;SDS011;19606;50.108;19.804;2022-10-18T09:39:15;27.40;;;15.27;;
33246;SDS011;19606;50.108;19.804;2022-10-18T09:41:47;24.05;;;15.68;;
33246;SDS011;19606;50.108;19.804;2022-10-18T09:44:20;21.40;;;15.02;;
33246;SDS011;19606;50.108;19.804;2022-10-18T09:46:50;24.02;;;14.65;;
33246;SDS011;19606;50.108;19.804;2022-10-18T09:49:18;24.75;;;15.15;;
33246;SDS011;19606;50.108;19.804;2022-10-18T09:51:46;22.63;;;13.98;;
33246;SDS011;19606;50.108;19.804;2022-10-18T09:54:20;23.10;;;13.93;;
33246;SDS011;19606;50.108;19.804;2022-10-18T09:56:49;22.33;;;13.50;;
33246;SDS011;19606;50.108;19.804;2022-10-18T09:59:27;20.70;;;13.60;;
33246;SDS011;19606;50.108;19.804;2022-10-18T10:01:54;24.42;;;13.23;;
33246;SDS011;19606;50.108;19.804;2022-10-18T10:04:20;24.92;;;12.48;;
33246;SDS011;19606;50.108;19.804;2022-10-18T10:06:53;18.67;;;11.90;;
33246;SDS011;19606;50.108;19.804;2022-10-18T10:09:24;16.85;;;12.35;;
33246;SDS011;19606;50.108;19.804;2022-10-18T10:11:51;20.48;;;11.90;;
33246;SDS011;19606;50.108;19.804;2022-10-18T10:14:18;21.15;;;11.25;;
33246;SDS011;19606;50.108;19.804;2022-10-18T10:16:52;18.05;;;10.35;;
33246;SDS011;19606;50.108;19.804;2022-10-18T10:21:54;19.92;;;10.32;;
33246;SDS011;19606;50.108;19.804;2022-10-18T10:24:25;19.25;;;9.95;;
33246;SDS011;19606;50.108;19.804;2022-10-18T10:26:58;17.02;;;10.15;;
33246;SDS011;19606;50.108;19.804;2022-10-18T10:32:10;13.85;;;9.82;;
33246;SDS011;19606;50.108;19.804;2022-10-18T10:34:37;15.40;;;9.20;;
33246;SDS011;19606;50.108;19.804;2022-10-18T10:37:08;11.23;;;8.00;;
33246;SDS011;19606;50.108;19.804;2022-10-18T10:39:54;16.98;;;7.97;;
33246;SDS011;19606;50.108;19.804;2022-10-18T10:42:28;18.58;;;7.57;;
33246;SDS011;19606;50.108;19.804;2022-10-18T10:44:54;15.57;;;8.07;;
33246;SDS011;19606;50.108;19.804;2022-10-18T10:47:27;15.05;;;7.38;;
33246;SDS011;19606;50.108;19.804;2022-10-18T10:49:55;12.30;;;7.80;;
33246;SDS011;19606;50.108;19.804;2022-10-18T10:52:22;17.58;;;7.13;;
33246;SDS011;19606;50.108;19.804;2022-10-18T10:54:51;13.85;;;7.55;;
33246;SDS011;19606;50.108;19.804;2022-10-18T10:57:27;11.52;;;7.57;;
33246;SDS011;19606;50.108;19.804;2022-10-18T10:59:57;9.27;;;6.20;;
33246;SDS011;19606;50.108;19.804;2022-10-18T11:04:56;15.00;;;6.43;;
33246;SDS011;19606;50.108;19.804;2022-10-18T11:07:34;11.05;;;5.90;;
33246;SDS011;19606;50.108;19.804;2022-10-18T11:12:42;6.70;;;5.30;;
33246;SDS011;19606;50.108;19.804;2022-10-18T11:20:20;7.88;;;5.80;;
33246;SDS011;19606;50.108;19.804;2022-10-18T11:25:14;9.13;;;5.32;;
33246;SDS011;19606;50.108;19.804;2022-10-18T11:27:45;7.80;;;5.32;;
33246;SDS011;19606;50.108;19.804;2022-10-18T11:33:05;6.68;;;5.20;;
33246;SDS011;19606;50.108;19.804;2022-10-18T11:35:40;7.82;;;5.18;;
33246;SDS011;19606;50.108;19.804;2022-10-18T11:45:53;15.23;;;6.63;;
33246;SDS011;19606;50.108;19.804;2022-10-18T11:50:53;12.63;;;6.25;;
33246;SDS011;19606;50.108;19.804;2022-10-18T11:58:53;6.13;;;5.53;;
33246;SDS011;19606;50.108;19.804;2022-10-18T12:03:55;8.60;;;5.60;;
33246;SDS011;19606;50.108;19.804;2022-10-18T12:06:24;10.00;;;5.10;;
33246;SDS011;19606;50.108;19.804;2022-10-18T12:08:54;6.53;;;5.15;;
33246;SDS011;19606;50.108;19.804;2022-10-18T12:11:25;7.90;;;5.05;;
33246;SDS011;19606;50.108;19.804;2022-10-18T12:13:56;11.73;;;5.03;;
33246;SDS011;19606;50.108;19.804;2022-10-18T12:16:24;14.30;;;5.45;;
33246;SDS011;19606;50.108;19.804;2022-10-18T12:18:53;6.53;;;5.30;;
33246;SDS011;19606;50.108;19.804;2022-10-18T12:21:20;8.45;;;4.93;;
33246;SDS011;19606;50.108;19.804;2022-10-18T12:23:54;10.60;;;5.22;;
33246;SDS011;19606;50.108;19.804;2022-10-18T12:26:21;12.20;;;6.00;;
33246;SDS011;19606;50.108;19.804;2022-10-18T12:33:41;9.50;;;4.72;;
33246;SDS011;19606;50.108;19.804;2022-10-18T12:38:39;7.55;;;5.15;;
33246;SDS011;19606;50.108;19.804;2022-10-18T12:41:06;5.80;;;4.60;;
33246;SDS011;19606;50.108;19.804;2022-10-18T12:46:06;9.02;;;5.50;;
33246;SDS011;19606;50.108;19.804;2022-10-18T12:53:28;7.13;;;4.88;;
33246;SDS011;19606;50.108;19.804;2022-10-18T12:55:56;8.82;;;5.57;;
33246;SDS011;19606;50.108;19.804;2022-10-18T12:58:41;12.93;;;5.20;;
33246;SDS011;19606;50.108;19.804;2022-10-18T13:01:07;10.07;;;4.88;;
33246;SDS011;19606;50.108;19.804;2022-10-18T13:03:38;8.52;;;5.00;;
33246;SDS011;19606;50.108;19.804;2022-10-18T13:06:04;7.28;;;4.95;;
33246;SDS011;19606;50.108;19.804;2022-10-18T13:16:09;6.05;;;5.00;;
33246;SDS011;19606;50.108;19.804;2022-10-18T13:18:51;12.68;;;5.25;;
33246;SDS011;19606;50.108;19.804;2022-10-18T13:31:36;11.18;;;5.47;;
33246;SDS011;19606;50.108;19.804;2022-10-18T13:37:31;7.32;;;5.38;;
33246;SDS011;19606;50.108;19.804;2022-10-18T13:39:32;9.65;;;5.32;;
33246;SDS011;19606;50.108;19.804;2022-10-18T14:07:59;11.35;;;5.97;;
33246;SDS011;19606;50.108;19.804;2022-10-18T14:10:35;11.95;;;5.68;;
33246;SDS011;19606;50.108;19.804;2022-10-18T14:13:03;14.88;;;6.20;;
33246;SDS011;19606;50.108;19.804;2022-10-18T14:15:34;16.10;;;6.07;;
33246;SDS011;19606;50.108;19.804;2022-10-18T14:18:43;11.73;;;6.57;;
33246;SDS011;19606;50.108;19.804;2022-10-18T14:20:52;12.07;;;6.63;;
33246;SDS011;19606;50.108;19.804;2022-10-18T14:23:24;10.70;;;6.47;;
33246;SDS011;19606;50.108;19.804;2022-10-18T14:26:04;10.52;;;6.75;;
33246;SDS011;19606;50.108;19.804;2022-10-18T14:28:31;13.75;;;7.03;;
33246;SDS011;19606;50.108;19.804;2022-10-18T14:30:58;15.48;;;7.68;;
33246;SDS011;19606;50.108;19.804;2022-10-18T14:33:46;11.95;;;8.10;;
33246;SDS011;19606;50.108;19.804;2022-10-18T14:41:12;13.60;;;6.95;;
33246;SDS011;19606;50.108;19.804;2022-10-18T14:43:40;17.38;;;7.38;;
33246;SDS011;19606;50.108;19.804;2022-10-18T14:46:25;16.95;;;7.97;;
33246;SDS011;19606;50.108;19.804;2022-10-18T14:48:58;12.35;;;7.60;;
33246;SDS011;19606;50.108;19.804;2022-10-18T14:51:25;17.13;;;7.50;;
33246;SDS011;19606;50.108;19.804;2022-10-18T14:53:52;14.23;;;7.72;;
33246;SDS011;19606;50.108;19.804;2022-10-18T14:56:22;14.10;;;8.65;;
33246;SDS011;19606;50.108;19.804;2022-10-18T14:58:50;14.00;;;8.35;;
33246;SDS011;19606;50.108;19.804;2022-10-18T15:01:20;13.52;;;7.68;;
33246;SDS011;19606;50.108;19.804;2022-10-18T15:03:47;16.08;;;7.55;;
33246;SDS011;19606;50.108;19.804;2022-10-18T15:06:15;14.25;;;7.03;;
33246;SDS011;19606;50.108;19.804;2022-10-18T15:08:42;14.88;;;6.97;;
33246;SDS011;19606;50.108;19.804;2022-10-18T15:11:09;15.65;;;7.70;;
33246;SDS011;19606;50.108;19.804;2022-10-18T15:13:37;14.60;;;7.82;;
33246;SDS011;19606;50.108;19.804;2022-10-18T15:16:10;17.42;;;7.88;;
33246;SDS011;19606;50.108;19.804;2022-10-18T15:18:39;13.98;;;7.88;;
33246;SDS011;19606;50.108;19.804;2022-10-18T15:21:08;17.77;;;8.38;;
33246;SDS011;19606;50.108;19.804;2022-10-18T15:23:34;15.75;;;8.27;;
33246;SDS011;19606;50.108;19.804;2022-10-18T15:26:01;17.75;;;8.90;;
33246;SDS011;19606;50.108;19.804;2022-10-18T15:28:30;16.17;;;7.90;;
33246;SDS011;19606;50.108;19.804;2022-10-18T15:30:57;12.77;;;8.50;;
33246;SDS011;19606;50.108;19.804;2022-10-18T15:33:25;12.88;;;7.80;;
33246;SDS011;19606;50.108;19.804;2022-10-18T15:35:52;10.13;;;7.82;;
33246;SDS011;19606;50.108;19.804;2022-10-18T15:38:25;14.45;;;7.30;;
33246;SDS011;19606;50.108;19.804;2022-10-18T15:40:51;14.07;;;7.10;;
33246;SDS011;19606;50.108;19.804;2022-10-18T15:45:46;18.35;;;7.47;;
33246;SDS011;19606;50.108;19.804;2022-10-18T15:48:45;13.70;;;7.13;;
33246;SDS011;19606;50.108;19.804;2022-10-18T15:51:06;11.05;;;7.20;;
33246;SDS011;19606;50.108;19.804;2022-10-18T15:53:34;11.25;;;7.40;;
33246;SDS011;19606;50.108;19.804;2022-10-18T15:58:38;14.43;;;8.45;;
33246;SDS011;19606;50.108;19.804;2022-10-18T16:01:06;16.35;;;9.15;;
33246;SDS011;19606;50.108;19.804;2022-10-18T16:03:38;17.77;;;8.85;;
33246;SDS011;19606;50.108;19.804;2022-10-18T16:06:05;20.65;;;12.48;;
33246;SDS011;19606;50.108;19.804;2022-10-18T16:08:34;23.50;;;12.65;;
33246;SDS011;19606;50.108;19.804;2022-10-18T16:11:04;27.08;;;11.20;;
33246;SDS011;19606;50.108;19.804;2022-10-18T16:13:30;18.58;;;11.20;;
33246;SDS011;19606;50.108;19.804;2022-10-18T16:15:56;22.08;;;11.02;;
33246;SDS011;19606;50.108;19.804;2022-10-18T16:18:24;17.45;;;10.82;;
33246;SDS011;19606;50.108;19.804;2022-10-18T16:20:50;16.10;;;8.13;;
33246;SDS011;19606;50.108;19.804;2022-10-18T16:23:21;15.82;;;9.70;;
33246;SDS011;19606;50.108;19.804;2022-10-18T16:25:47;16.17;;;10.40;;
33246;SDS011;19606;50.108;19.804;2022-10-18T16:28:21;24.17;;;9.73;;
33246;SDS011;19606;50.108;19.804;2022-10-18T16:30:55;19.85;;;10.07;;
33246;SDS011;19606;50.108;19.804;2022-10-18T16:33:21;21.38;;;10.68;;
33246;SDS011;19606;50.108;19.804;2022-10-18T16:35:47;18.45;;;9.65;;
33246;SDS011;19606;50.108;19.804;2022-10-18T16:41:15;16.42;;;9.13;;
33246;SDS011;19606;50.108;19.804;2022-10-18T16:43:44;15.00;;;9.25;;
33246;SDS011;19606;50.108;19.804;2022-10-18T16:46:15;18.35;;;8.95;;
33246;SDS011;19606;50.108;19.804;2022-10-18T16:48:45;17.67;;;9.38;;
33246;SDS011;19606;50.108;19.804;2022-10-18T16:51:11;17.55;;;9.63;;
33246;SDS011;19606;50.108;19.804;2022-10-18T16:53:38;13.82;;;8.13;;
33246;SDS011;19606;50.108;19.804;2022-10-18T16:56:04;21.52;;;8.70;;
33246;SDS011;19606;50.108;19.804;2022-10-18T16:58:31;14.57;;;8.45;;
33246;SDS011;19606;50.108;19.804;2022-10-18T17:00:58;15.57;;;8.95;;
33246;SDS011;19606;50.108;19.804;2022-10-18T17:03:24;18.23;;;8.55;;
33246;SDS011;19606;50.108;19.804;2022-10-18T17:05:51;16.40;;;8.73;;
33246;SDS011;19606;50.108;19.804;2022-10-18T17:08:18;14.55;;;8.43;;
33246;SDS011;19606;50.108;19.804;2022-10-18T17:10:45;14.23;;;8.80;;
33246;SDS011;19606;50.108;19.804;2022-10-18T17:13:11;22.35;;;8.07;;